createdAt,value
2023-01-08T00:01:15.110Z,9.60
2023-01-08T00:03:43.466Z,9.60
2023-01-08T00:06:16.215Z,9.60
2023-01-08T00:08:44.735Z,9.50
2023-01-08T00:11:13.854Z,9.50
2023-01-08T00:13:42.435Z,9.50
2023-01-08T00:16:12.685Z,9.60
2023-01-08T00:18:41.186Z,9.60
2023-01-08T00:21:09.736Z,9.60
2023-01-08T00:23:40.004Z,9.60
2023-01-08T00:26:10.637Z,9.60
2023-01-08T00:28:39.448Z,9.60
2023-01-08T00:31:08.924Z,9.60
2023-01-08T00:33:38.424Z,9.60
2023-01-08T00:36:09.200Z,9.60
2023-01-08T00:38:39.230Z,9.60
2023-01-08T00:41:08.028Z,9.70
2023-01-08T00:43:36.639Z,9.70
2023-01-08T00:46:05.174Z,9.70
2023-01-08T00:48:37.379Z,9.70
2023-01-08T00:51:06.512Z,9.70
2023-01-08T00:53:34.841Z,9.70
2023-01-08T00:56:06.097Z,9.70
2023-01-08T00:58:34.464Z,9.70
2023-01-08T01:01:02.913Z,9.80
2023-01-08T01:03:32.545Z,9.80
2023-01-08T01:06:04.668Z,9.80
2023-01-08T01:08:32.916Z,9.80
2023-01-08T01:11:01.199Z,9.80
2023-01-08T01:13:30.679Z,9.80
2023-01-08T01:15:59.496Z,9.90
2023-01-08T01:18:27.675Z,9.90
2023-01-08T01:20:56.129Z,9.90
2023-01-08T01:23:24.250Z,9.90
2023-01-08T01:25:54.495Z,9.90
2023-01-08T01:28:22.712Z,9.90
2023-01-08T01:30:57.184Z,9.90
2023-01-08T01:33:25.376Z,9.80
2023-01-08T01:36:01.905Z,9.70
2023-01-08T01:38:30.946Z,9.70
2023-01-08T01:40:59.143Z,9.70
2023-01-08T01:43:36.460Z,9.70
2023-01-08T01:46:16.934Z,9.80
2023-01-08T01:48:46.176Z,9.80
2023-01-08T01:51:14.846Z,9.80
2023-01-08T01:53:43.040Z,9.70
2023-01-08T01:56:11.616Z,9.70
2023-01-08T01:58:40.043Z,9.60
2023-01-08T02:01:10.909Z,9.60
2023-01-08T02:03:40.727Z,9.50
2023-01-08T02:06:20.580Z,9.50
2023-01-08T02:08:57.563Z,9.50
2023-01-08T02:11:31.675Z,9.50
2023-01-08T02:14:02.037Z,9.50
2023-01-08T02:16:37.795Z,9.60
2023-01-08T02:19:15.084Z,9.70
2023-01-08T02:21:54.752Z,9.70
2023-01-08T02:24:36.821Z,9.80
2023-01-08T02:27:09.489Z,9.80
2023-01-08T02:29:38.347Z,9.80
2023-01-08T02:32:06.752Z,9.80
2023-01-08T02:34:35.312Z,9.90
2023-01-08T02:37:04.019Z,9.90
2023-01-08T02:39:46.824Z,9.90
2023-01-08T02:42:25.036Z,10.00
2023-01-08T02:44:59.477Z,10.10
2023-01-08T02:47:32.332Z,10.10
2023-01-08T02:50:14.269Z,10.10
2023-01-08T02:52:50.501Z,10.10
2023-01-08T02:55:20.717Z,10.20
2023-01-08T02:57:50.967Z,10.20
2023-01-08T03:00:20.746Z,10.20
2023-01-08T03:02:52.341Z,10.20
2023-01-08T03:05:26.118Z,10.20
2023-01-08T03:07:55.549Z,10.20
2023-01-08T03:10:26.606Z,10.20
2023-01-08T03:13:01.199Z,10.20
2023-01-08T03:15:35.529Z,10.10
2023-01-08T03:18:08.980Z,10.10
2023-01-08T03:20:39.827Z,10.10
2023-01-08T03:23:11.223Z,10.10
2023-01-08T03:25:42.608Z,10.10
2023-01-08T03:28:16.534Z,10.10
2023-01-08T03:30:47.014Z,10.00
2023-01-08T03:33:16.203Z,10.00
2023-01-08T03:35:49.482Z,9.90
2023-01-08T03:38:22.108Z,9.90
2023-01-08T03:40:55.207Z,9.90
2023-01-08T03:43:25.173Z,9.90
2023-01-08T03:45:59.289Z,9.90
2023-01-08T03:48:29.740Z,9.90
2023-01-08T03:50:58.073Z,9.90
2023-01-08T03:53:26.220Z,9.80
2023-01-08T03:55:54.459Z,9.80
2023-01-08T03:58:24.211Z,9.80
2023-01-08T04:00:52.676Z,9.80
2023-01-08T04:03:21.093Z,9.80
2023-01-08T04:05:49.200Z,9.80
2023-01-08T04:08:17.606Z,9.70
2023-01-08T04:10:45.990Z,9.80
2023-01-08T04:13:14.180Z,9.80
2023-01-08T04:15:49.093Z,9.80
2023-01-08T04:18:17.287Z,9.70
2023-01-08T04:20:47.529Z,9.60
2023-01-08T04:23:16.610Z,9.60
2023-01-08T04:25:44.740Z,9.60
2023-01-08T04:28:12.905Z,9.50
2023-01-08T04:30:41.247Z,9.50
2023-01-08T04:33:10.787Z,9.50
2023-01-08T04:35:39.119Z,9.50
2023-01-08T04:38:07.343Z,9.40
2023-01-08T04:40:36.021Z,9.40
2023-01-08T04:43:04.322Z,9.40
2023-01-08T04:45:32.576Z,9.40
2023-01-08T04:48:01.552Z,9.40
2023-01-08T04:50:31.047Z,9.40
2023-01-08T04:53:00.526Z,9.40
2023-01-08T04:55:28.643Z,9.30
2023-01-08T04:57:56.885Z,9.30
2023-01-08T05:00:24.979Z,9.30
2023-01-08T05:02:53.251Z,9.30
2023-01-08T05:05:21.482Z,9.30
2023-01-08T05:07:51.073Z,9.30
2023-01-08T05:10:19.229Z,9.40
2023-01-08T05:12:47.744Z,9.30
2023-01-08T05:15:16.075Z,9.40
2023-01-08T05:17:44.164Z,9.40
2023-01-08T05:20:13.051Z,9.40
2023-01-08T05:22:41.190Z,9.40
2023-01-08T05:25:11.310Z,9.50
2023-01-08T05:27:39.425Z,9.50
2023-01-08T05:30:09.034Z,9.60
2023-01-08T05:32:37.304Z,9.60
2023-01-08T05:35:06.147Z,9.60
2023-01-08T05:37:35.375Z,9.60
2023-01-08T05:40:03.702Z,9.50
2023-01-08T05:42:35.424Z,9.50
2023-01-08T05:45:03.720Z,9.60
2023-01-08T05:47:32.099Z,9.60
2023-01-08T05:50:00.511Z,9.60
2023-01-08T05:52:29.228Z,9.60
2023-01-08T05:55:00.149Z,9.70
2023-01-08T05:57:28.313Z,9.70
2023-01-08T05:59:57.854Z,9.60
2023-01-08T06:02:26.272Z,9.50
2023-01-08T06:04:54.460Z,9.60
2023-01-08T06:07:22.563Z,9.60
2023-01-08T06:09:50.705Z,9.60
2023-01-08T06:12:18.907Z,9.70
2023-01-08T06:14:47.019Z,9.70
2023-01-08T06:17:17.399Z,9.70
2023-01-08T06:19:47.323Z,9.80
2023-01-08T06:22:15.728Z,9.80
2023-01-08T06:24:43.781Z,9.80
2023-01-08T06:27:12.083Z,9.80
2023-01-08T06:29:40.180Z,9.80
2023-01-08T06:32:08.428Z,9.80
2023-01-08T06:34:37.874Z,9.80
2023-01-08T06:37:05.998Z,9.90
2023-01-08T06:39:34.281Z,9.90
2023-01-08T06:42:02.622Z,9.90
2023-01-08T06:44:30.880Z,9.90
2023-01-08T06:46:59.111Z,9.80
2023-01-08T06:49:27.352Z,9.80
2023-01-08T06:51:57.213Z,9.80
2023-01-08T06:54:25.359Z,9.80
2023-01-08T06:56:54.485Z,9.80
2023-01-08T06:59:23.234Z,9.80
2023-01-08T07:01:51.708Z,9.80
2023-01-08T07:04:20.048Z,9.70
2023-01-08T07:06:48.591Z,9.70
2023-01-08T07:09:18.016Z,9.70
2023-01-08T07:11:46.305Z,9.60
2023-01-08T07:14:14.489Z,9.60
2023-01-08T07:16:42.771Z,9.60
2023-01-08T07:19:11.250Z,9.70
2023-01-08T07:21:39.623Z,9.70
2023-01-08T07:24:08.674Z,9.70
2023-01-08T07:26:39.713Z,9.70
2023-01-08T07:29:07.972Z,9.70
2023-01-08T07:31:36.270Z,9.70
2023-01-08T07:34:04.548Z,9.80
2023-01-08T07:36:32.834Z,9.80
2023-01-08T07:39:00.954Z,9.80
2023-01-08T07:41:29.237Z,9.80
2023-01-08T07:43:59.681Z,9.70
2023-01-08T07:46:27.964Z,9.60
2023-01-08T07:48:57.245Z,9.50
2023-01-08T07:51:25.489Z,9.50
2023-01-08T07:53:56.103Z,9.50
2023-01-08T07:56:25.513Z,9.40
2023-01-08T07:58:53.661Z,9.30
2023-01-08T08:01:24.123Z,9.20
2023-01-08T08:03:52.549Z,9.20
2023-01-08T08:06:20.656Z,9.20
2023-01-08T08:08:48.833Z,9.20
2023-01-08T08:11:17.296Z,9.20
2023-01-08T08:13:47.390Z,9.20
2023-01-08T08:16:15.785Z,9.20
2023-01-08T08:18:45.273Z,9.20
2023-01-08T08:21:14.302Z,9.20
2023-01-08T08:23:42.388Z,9.20
2023-01-08T08:26:10.698Z,9.20
2023-01-08T08:28:38.770Z,9.20
2023-01-08T08:31:07.220Z,9.20
2023-01-08T08:33:35.378Z,9.20
2023-01-08T08:36:05.180Z,9.30
2023-01-08T08:38:33.455Z,9.30
2023-01-08T08:41:01.783Z,9.40
2023-01-08T08:43:29.928Z,9.40
2023-01-08T08:45:58.379Z,9.40
2023-01-08T08:48:27.445Z,9.50
2023-01-08T08:50:55.538Z,9.60
2023-01-08T08:53:26.995Z,9.60
2023-01-08T08:55:55.823Z,9.70
2023-01-08T08:58:24.182Z,9.70
2023-01-08T09:00:52.287Z,9.70
2023-01-08T09:03:20.785Z,9.70
2023-01-08T09:05:49.017Z,9.60
2023-01-08T09:08:17.207Z,9.60
2023-01-08T09:10:46.946Z,9.60
2023-01-08T09:13:15.218Z,9.60
2023-01-08T09:15:43.541Z,9.60
2023-01-08T09:18:12.125Z,9.70
2023-01-08T09:20:40.332Z,9.60
2023-01-08T09:23:08.417Z,9.60
2023-01-08T09:25:36.646Z,9.60
2023-01-08T09:28:08.490Z,9.50
2023-01-08T09:30:37.040Z,9.40
2023-01-08T09:33:05.792Z,9.40
2023-01-08T09:35:34.448Z,9.30
2023-01-08T09:38:02.562Z,9.20
2023-01-08T09:40:36.385Z,9.20
2023-01-08T09:43:06.876Z,9.20
2023-01-08T09:45:38.803Z,9.20
2023-01-08T09:48:11.657Z,9.30
2023-01-08T09:50:40.188Z,9.30
2023-01-08T09:53:15.067Z,9.50
2023-01-08T09:55:43.826Z,9.60
2023-01-08T09:58:31.804Z,9.80
2023-01-08T10:01:01.915Z,10.00
2023-01-08T10:03:38.078Z,10.10
2023-01-08T10:06:10.709Z,10.10
2023-01-08T10:08:39.091Z,10.10
2023-01-08T10:11:08.285Z,10.10
2023-01-08T10:13:40.163Z,10.20
2023-01-08T10:16:11.112Z,10.20
2023-01-08T10:18:41.255Z,10.30
2023-01-08T10:21:13.793Z,10.40
2023-01-08T10:23:50.768Z,10.70
2023-01-08T10:26:28.476Z,10.80
2023-01-08T10:29:10.414Z,11.10
2023-01-08T10:31:48.303Z,12.20
2023-01-08T10:34:32.584Z,13.50
2023-01-08T10:37:01.248Z,15.40
2023-01-08T10:39:33.182Z,16.60
2023-01-08T10:42:07.141Z,17.20
2023-01-08T10:44:37.774Z,17.40
2023-01-08T10:47:06.624Z,17.20
2023-01-08T10:49:39.278Z,16.70
2023-01-08T10:52:22.616Z,16.40
2023-01-08T10:54:50.918Z,15.80
2023-01-08T10:57:22.533Z,15.90
2023-01-08T10:59:52.084Z,16.70
2023-01-08T11:02:35.275Z,18.50
2023-01-08T11:05:07.618Z,20.40
2023-01-08T11:07:36.305Z,21.80
2023-01-08T11:10:06.334Z,22.90
2023-01-08T11:12:38.743Z,24.10
2023-01-08T11:15:32.446Z,25.20
2023-01-08T11:18:17.810Z,25.50
2023-01-08T11:20:47.192Z,26.70
2023-01-08T11:23:21.243Z,27.10
2023-01-08T11:25:55.512Z,28.00
2023-01-08T11:28:30.558Z,28.80
2023-01-08T11:31:12.868Z,29.80
2023-01-08T11:33:42.610Z,30.20
2023-01-08T11:36:20.603Z,30.40
2023-01-08T11:38:48.760Z,30.20
2023-01-08T11:41:30.930Z,30.80
2023-01-08T11:44:13.488Z,29.80
2023-01-08T11:46:52.887Z,27.90
2023-01-08T11:49:38.544Z,28.00
2023-01-08T11:52:22.208Z,27.80
2023-01-08T11:55:17.004Z,27.50
2023-01-08T11:57:56.275Z,27.10
2023-01-08T12:00:37.167Z,27.20
2023-01-08T12:03:17.727Z,27.20
2023-01-08T12:05:52.197Z,26.90
2023-01-08T12:08:30.005Z,25.70
2023-01-08T12:11:11.170Z,24.80
2023-01-08T12:14:04.600Z,25.10
2023-01-08T12:16:45.779Z,25.20
2023-01-08T12:19:32.826Z,25.20
2023-01-08T12:22:13.611Z,26.40
2023-01-08T12:25:07.798Z,27.00
2023-01-08T12:27:59.372Z,27.60
2023-01-08T12:30:38.890Z,27.10
2023-01-08T12:33:12.927Z,26.90
2023-01-08T12:35:44.372Z,26.10
2023-01-08T12:38:16.695Z,26.40
2023-01-08T12:40:50.124Z,25.70
2023-01-08T12:43:23.232Z,25.10
2023-01-08T12:45:55.346Z,24.90
2023-01-08T12:48:27.022Z,25.10
2023-01-08T12:51:03.896Z,25.30
2023-01-08T12:53:42.648Z,25.80
2023-01-08T12:56:16.244Z,25.90
2023-01-08T12:58:57.179Z,25.60
2023-01-08T13:01:36.920Z,25.60
2023-01-08T13:04:06.150Z,25.30
2023-01-08T13:06:36.884Z,25.00
2023-01-08T13:09:05.690Z,25.30
2023-01-08T13:11:37.238Z,24.40
2023-01-08T13:14:07.447Z,23.90
2023-01-08T13:16:39.625Z,23.80
2023-01-08T13:19:22.822Z,23.90
2023-01-08T13:21:55.592Z,23.60
2023-01-08T13:24:30.828Z,22.70
2023-01-08T13:27:11.739Z,22.40
2023-01-08T13:29:41.457Z,21.90
2023-01-08T13:32:27.451Z,21.50
2023-01-08T13:35:13.814Z,21.50
2023-01-08T13:37:43.779Z,21.80
2023-01-08T13:40:40.115Z,21.40
2023-01-08T13:43:14.366Z,21.50
2023-01-08T13:45:42.944Z,21.40
2023-01-08T13:48:23.464Z,21.10
2023-01-08T13:50:52.189Z,20.60
2023-01-08T13:53:22.899Z,20.30
2023-01-08T13:55:58.102Z,19.20
2023-01-08T13:58:30.171Z,18.30
2023-01-08T14:01:00.475Z,17.50
2023-01-08T14:03:30.177Z,16.60
2023-01-08T14:06:07.772Z,15.80
2023-01-08T14:08:38.682Z,15.20
2023-01-08T14:11:07.604Z,14.60
2023-01-08T14:13:38.063Z,14.20
2023-01-08T14:16:12.527Z,13.90
2023-01-08T14:18:41.931Z,13.70
2023-01-08T14:21:10.606Z,13.30
2023-01-08T14:23:43.421Z,12.70
2023-01-08T14:26:21.736Z,12.40
2023-01-08T14:28:53.040Z,12.10
2023-01-08T14:31:22.534Z,11.90
2023-01-08T14:33:53.436Z,11.60
2023-01-08T14:36:22.477Z,11.40
2023-01-08T14:38:52.358Z,11.30
2023-01-08T14:41:49.450Z,11.10
2023-01-08T14:44:21.091Z,10.90
2023-01-08T14:46:55.787Z,10.90
2023-01-08T14:49:27.699Z,10.80
2023-01-08T14:51:57.368Z,10.80
2023-01-08T14:54:30.949Z,10.70
2023-01-08T14:57:01.156Z,10.60
2023-01-08T14:59:32.263Z,10.60
2023-01-08T15:02:02.706Z,10.50
2023-01-08T15:04:32.185Z,10.40
2023-01-08T15:07:08.858Z,10.40
2023-01-08T15:09:38.477Z,10.40
2023-01-08T15:12:08.504Z,10.30
2023-01-08T15:14:37.329Z,10.30
2023-01-08T15:17:11.666Z,10.30
2023-01-08T15:19:43.346Z,10.30
2023-01-08T15:22:19.628Z,10.30
2023-01-08T15:24:58.268Z,10.30
2023-01-08T15:27:27.899Z,10.30
2023-01-08T15:30:00.128Z,10.30
2023-01-08T15:32:31.297Z,10.30
2023-01-08T15:34:59.927Z,10.20
2023-01-08T15:37:35.215Z,10.20
2023-01-08T15:40:07.533Z,10.30
2023-01-08T15:42:53.373Z,10.30
2023-01-08T15:45:23.219Z,10.20
2023-01-08T15:47:51.402Z,10.20
2023-01-08T15:50:20.604Z,10.20
2023-01-08T15:52:49.261Z,10.10
2023-01-08T15:55:21.805Z,10.20
2023-01-08T15:57:50.351Z,10.00
2023-01-08T16:00:20.312Z,10.10
2023-01-08T16:02:50.672Z,10.10
2023-01-08T16:05:20.799Z,10.00
2023-01-08T16:07:49.105Z,10.00
2023-01-08T16:10:19.604Z,9.90
2023-01-08T16:12:48.387Z,9.90
2023-01-08T16:15:16.887Z,9.90
2023-01-08T16:17:45.503Z,9.90
2023-01-08T16:20:15.514Z,9.80
2023-01-08T16:22:43.756Z,9.80
2023-01-08T16:25:13.108Z,9.70
2023-01-08T16:27:43.638Z,9.70
2023-01-08T16:30:15.537Z,9.60
2023-01-08T16:32:43.923Z,9.50
2023-01-08T16:35:12.477Z,9.30
2023-01-08T16:37:40.575Z,9.00
2023-01-08T16:40:10.711Z,8.70
2023-01-08T16:42:39.524Z,8.40
2023-01-08T16:45:10.195Z,8.20
2023-01-08T16:47:38.839Z,8.00
2023-01-08T16:50:07.511Z,7.90
2023-01-08T16:52:37.849Z,7.70
2023-01-08T16:55:07.258Z,7.50
2023-01-08T16:57:35.531Z,7.40
2023-01-08T17:00:04.411Z,7.30
2023-01-08T17:02:33.967Z,7.20
2023-01-08T17:05:02.359Z,7.10
2023-01-08T17:07:30.580Z,7.10
2023-01-08T17:09:58.775Z,6.90
2023-01-08T17:12:26.898Z,6.90
2023-01-08T17:14:55.095Z,6.90
2023-01-08T17:17:23.291Z,6.80
2023-01-08T17:19:52.954Z,6.70
2023-01-08T17:22:21.152Z,6.70
2023-01-08T17:24:49.247Z,6.60
2023-01-08T17:27:17.506Z,6.60
2023-01-08T17:29:45.777Z,6.50
2023-01-08T17:32:14.255Z,6.50
2023-01-08T17:34:42.565Z,6.40
2023-01-08T17:37:12.172Z,6.50
2023-01-08T17:39:40.639Z,6.40
2023-01-08T17:42:28.216Z,6.40
2023-01-08T17:44:58.418Z,6.30
2023-01-08T17:47:27.681Z,6.30
2023-01-08T17:49:57.499Z,6.30
2023-01-08T17:52:27.451Z,6.30
2023-01-08T17:54:55.571Z,6.30
2023-01-08T17:57:24.248Z,6.30
2023-01-08T17:59:52.395Z,6.30
2023-01-08T18:02:20.857Z,6.30
2023-01-08T18:04:49.197Z,6.30
2023-01-08T18:07:20.149Z,6.30
2023-01-08T18:09:52.823Z,6.30
2023-01-08T18:12:21.206Z,6.30
2023-01-08T18:14:49.693Z,6.20
2023-01-08T18:17:18.061Z,6.20
2023-01-08T18:19:46.318Z,6.10
2023-01-08T18:22:15.387Z,6.10
2023-01-08T18:24:43.658Z,6.10
2023-01-08T18:27:13.307Z,6.10
2023-01-08T18:29:41.557Z,6.10
2023-01-08T18:32:09.982Z,6.00
2023-01-08T18:34:38.955Z,6.00
2023-01-08T18:37:07.081Z,6.00
2023-01-08T18:39:35.282Z,6.00
2023-01-08T18:42:29.161Z,5.90
2023-01-08T18:44:59.328Z,6.00
2023-01-08T18:47:28.844Z,6.00
2023-01-08T18:49:59.160Z,6.00
2023-01-08T18:52:27.404Z,6.00
2023-01-08T18:54:55.627Z,6.00
2023-01-08T18:57:23.741Z,6.00
2023-01-08T18:59:51.878Z,6.00
2023-01-08T19:02:23.609Z,6.00
2023-01-08T19:04:52.274Z,6.00
2023-01-08T19:07:21.254Z,6.00
2023-01-08T19:09:49.457Z,5.90
2023-01-08T19:12:17.622Z,5.90
2023-01-08T19:14:47.176Z,5.90
2023-01-08T19:17:15.311Z,5.90
2023-01-08T19:19:44.916Z,5.90
2023-01-08T19:22:13.262Z,6.00
2023-01-08T19:24:41.528Z,6.00
2023-01-08T19:27:09.916Z,6.00
2023-01-08T19:29:38.030Z,6.00
2023-01-08T19:32:07.588Z,5.90
2023-01-08T19:34:35.805Z,5.90
2023-01-08T19:37:05.741Z,5.90
2023-01-08T19:39:33.890Z,5.80
2023-01-08T19:42:19.687Z,5.80
2023-01-08T19:44:47.892Z,5.80
2023-01-08T19:47:16.966Z,5.80
2023-01-08T19:49:47.629Z,5.70
2023-01-08T19:52:17.248Z,5.70
2023-01-08T19:54:46.049Z,5.60
2023-01-08T19:57:14.523Z,5.60
2023-01-08T19:59:42.913Z,5.60
2023-01-08T20:02:12.308Z,5.60
2023-01-08T20:04:42.319Z,5.60
2023-01-08T20:07:10.904Z,5.50
2023-01-08T20:09:40.974Z,5.50
2023-01-08T20:12:09.448Z,5.60
2023-01-08T20:14:37.780Z,5.60
2023-01-08T20:17:06.085Z,5.70
2023-01-08T20:19:34.823Z,5.80
2023-01-08T20:22:03.060Z,5.80
2023-01-08T20:24:31.464Z,5.90
2023-01-08T20:27:01.237Z,5.90
2023-01-08T20:29:29.450Z,5.90
2023-01-08T20:31:59.568Z,6.00
2023-01-08T20:34:28.213Z,6.10
2023-01-08T20:36:57.280Z,6.20
2023-01-08T20:39:26.075Z,6.30
2023-01-08T20:42:03.740Z,6.30
2023-01-08T20:44:34.283Z,6.40
2023-01-08T20:47:03.000Z,6.50
2023-01-08T20:49:31.433Z,6.40
2023-01-08T20:52:00.550Z,6.30
2023-01-08T20:54:29.994Z,6.30
2023-01-08T20:56:59.592Z,6.30
2023-01-08T20:59:28.430Z,6.20
2023-01-08T21:01:58.089Z,6.20
2023-01-08T21:04:27.867Z,6.20
2023-01-08T21:06:56.291Z,6.20
2023-01-08T21:09:24.485Z,6.10
2023-01-08T21:11:52.809Z,6.00
2023-01-08T21:14:20.945Z,6.00
2023-01-08T21:16:49.314Z,6.00
2023-01-08T21:19:18.769Z,5.90
2023-01-08T21:21:47.085Z,5.90
2023-01-08T21:24:15.517Z,5.90
2023-01-08T21:26:46.258Z,5.90
2023-01-08T21:29:14.744Z,5.90
2023-01-08T21:31:43.364Z,5.90
2023-01-08T21:34:11.750Z,5.80
2023-01-08T21:36:41.503Z,5.90
2023-01-08T21:39:11.007Z,5.80
2023-01-08T21:41:56.681Z,5.80
2023-01-08T21:44:43.798Z,5.80
2023-01-08T21:47:16.618Z,5.90
2023-01-08T21:49:45.418Z,5.80
2023-01-08T21:52:32.727Z,5.80
2023-01-08T21:55:01.014Z,5.80
2023-01-08T21:57:29.883Z,5.80
2023-01-08T21:59:58.330Z,5.80
2023-01-08T22:02:26.793Z,5.80
2023-01-08T22:04:56.552Z,5.80
2023-01-08T22:07:26.766Z,5.70
2023-01-08T22:09:55.182Z,5.70
2023-01-08T22:12:24.174Z,5.70
2023-01-08T22:14:53.287Z,5.60
2023-01-08T22:17:22.545Z,5.70
2023-01-08T22:19:50.639Z,5.70
2023-01-08T22:22:19.325Z,5.70
2023-01-08T22:24:48.764Z,5.70
2023-01-08T22:27:17.370Z,5.70
2023-01-08T22:29:45.462Z,5.70
2023-01-08T22:32:13.893Z,5.70
2023-01-08T22:34:42.256Z,5.60
2023-01-08T22:37:10.341Z,5.60
2023-01-08T22:39:38.760Z,5.60
2023-01-08T22:42:08.313Z,5.60
2023-01-08T22:44:36.826Z,5.70
2023-01-08T22:47:06.034Z,5.70
2023-01-08T22:49:34.639Z,5.80
2023-01-08T22:52:02.896Z,5.90
2023-01-08T22:54:31.230Z,5.90
2023-01-08T22:56:59.409Z,5.90
2023-01-08T22:59:29.037Z,5.90
2023-01-08T23:01:57.188Z,5.90
2023-01-08T23:04:25.472Z,5.90
2023-01-08T23:06:53.626Z,6.00
2023-01-08T23:09:21.985Z,6.00
2023-01-08T23:11:50.183Z,6.00
2023-01-08T23:14:18.553Z,6.00
2023-01-08T23:16:48.148Z,6.00
2023-01-08T23:19:16.459Z,6.00
2023-01-08T23:21:44.568Z,6.00
2023-01-08T23:24:14.543Z,6.00
2023-01-08T23:26:43.147Z,6.00
2023-01-08T23:29:11.820Z,6.00
2023-01-08T23:31:40.005Z,5.90
2023-01-08T23:34:09.809Z,5.90
2023-01-08T23:36:37.959Z,6.00
2023-01-08T23:39:06.737Z,6.00
2023-01-08T23:41:35.445Z,6.10
2023-01-08T23:44:05.313Z,6.00
2023-01-08T23:46:33.956Z,6.00
2023-01-08T23:49:02.273Z,6.10
2023-01-08T23:51:32.002Z,6.10
2023-01-08T23:54:00.359Z,6.10
2023-01-08T23:56:28.895Z,6.10
2023-01-08T23:58:57.753Z,6.10
